Antioch, IL (60002)

6:28 AM CST on December 03, 2016 (GMT -0600)
Oakwood Drive | | Change Station

Elev 810 ft 42.49 °N, 88.09 °W | Updated 33 seconds ago

Overcast
Overcast
32.7 °F
Feels Like 33 °F
N
1.2
Wind Variable Wind from West
Gusts 3.1 mph

Today
High -- | Low -- °F
--% Chance of Precip.
Yesterday
High -- | Low -- °F
Precip. -- in
Pressure 30.37 in
Visibility 10.0 miles
Clouds Overcast 2300 ft
Windchill 33 °F
Dew Point 30 °F
Humidity 91%
Rainfall 0.00 in
Snow Depth Not available.
7:04 AM 4:19 PM
Waxing Crescent, 14% visible
METAR KENW 031153Z AUTO 26005KT 10SM OVC023 M01/M05 A3034 RMK AO2 SLP282 T10061050 10000 21006 51008
Pressure 30.37 in
Visibility 10.0 miles
Clouds Overcast 2300 ft
Windchill 33 °F
Dew Point 30 °F
Humidity 91%
Rainfall 0.00 in
Snow Depth Not available.
7:04 AM 4:19 PM
Waxing Crescent, 14% visible
METAR KENW 031153Z AUTO 26005KT 10SM OVC023 M01/M05 A3034 RMK AO2 SLP282 T10061050 10000 21006 51008

10-Day Weather Forecast

Almanac

Astronomy

Dec. 03, 2016 Rise Set
Actual Time
Civil Twilight
Nautical Twilight
Astronomical Twilight
Moon
Length of Visible Light
Length of Day
Tomorrow will be .
, % of the Moon is Illuminated

Today's Extremes

State Highs State Lows

Community

WunderPhotos

Upload Photos

1,955,441 photos uploaded!

WunderBlog® & News

Nearby

Air Quality

  Air Quality AQ Index Pollutant
Not available.

Snow Depth

Station Depth Elevation

Earthquake Activity

City Distance Mag. Time & Date
Minimum magnitude displayed is 2.5.

Coastal Water Temperatures

Place Temperature

Stations

Nearby Weather Stations

Station Location Temp. Windchill Dew Point Humidity Wind Precip. Elev Updated Type
                   

Watches & Warnings

There are currently no watches in effect.